Decoded Metar for USNN (NIZHNEVARTOVSK in RUSSIA) (IATA:NJC) | Meteo·Mobile Aviation Weather
aviador You're here:

USNN Decoded Metar

NIZHNEVARTOVSK in RUSSIA
Report Time2018-08-20 18:30:00
UTC Time2018-08-20 18:43:16
Flight Rules mvfr MVFR
Wind050° at 4 kt
W.Decomp.*RWY 03: 4.0 kt HW 0.3 kt RCW
W.Rank050° ranks 33
Current wind is below 050° avg. (7.8)
Visibility6000 m
Phenomena:N/A
Clouds:N/A
CeilingNone
Temp06°C (ISA -9)
Dew Point06°C (100% RH)
AAT3.6°C
QNH1012 hPa
Density Alt-705 ft
Elevation177 ft
Report Wrong Elevation
Raw Report
USNN 201830Z 05002MPS 6000 NSC 06/06 Q1012 R03/0///65 NOSIG RMK
QFE755=

Extra information for USNN:More info

Metar Taf Metar & Taf Last 4 Metars F.Rules Stats Wind Profile Meteogram Temp Stats Airport Information Weather charts Add Link Nearby VenuesMetar ALERT Operation Metar Decoded Social comments